createdAt,value
2023-05-25T00:01:49.551Z,14.91
2023-05-25T00:04:19.578Z,14.92
2023-05-25T00:06:47.900Z,14.91
2023-05-25T00:09:15.714Z,14.90
2023-05-25T00:11:43.342Z,14.91
2023-05-25T00:14:11.110Z,14.93
2023-05-25T00:16:41.038Z,14.92
2023-05-25T00:19:11.420Z,14.92
2023-05-25T00:21:38.985Z,14.92
2023-05-25T00:24:06.709Z,14.91
2023-05-25T00:26:35.578Z,14.93
2023-05-25T00:29:07.322Z,14.96
2023-05-25T00:31:36.966Z,15.00
2023-05-25T00:34:04.586Z,15.00
2023-05-25T00:36:32.245Z,14.98
2023-05-25T00:38:59.835Z,14.94
2023-05-25T00:41:28.312Z,14.89
2023-05-25T00:43:57.282Z,14.84
2023-05-25T00:46:25.244Z,14.80
2023-05-25T00:48:53.567Z,14.76
2023-05-25T00:51:21.703Z,14.72
2023-05-25T00:53:50.945Z,14.65
2023-05-25T00:56:23.378Z,14.61
2023-05-25T00:58:53.172Z,14.61
2023-05-25T01:01:22.214Z,14.59
2023-05-25T01:03:54.163Z,14.54
2023-05-25T01:06:22.915Z,14.49
2023-05-25T01:08:53.036Z,14.43
2023-05-25T01:11:23.556Z,14.36
2023-05-25T01:13:53.584Z,14.30
2023-05-25T01:16:21.335Z,14.25
2023-05-25T01:18:48.957Z,14.21
2023-05-25T01:21:29.638Z,14.18
2023-05-25T01:24:12.206Z,14.14
2023-05-25T01:26:53.922Z,14.13
2023-05-25T01:29:21.938Z,14.16
2023-05-25T01:31:49.792Z,14.17
2023-05-25T01:34:17.570Z,14.17
2023-05-25T01:36:45.302Z,14.18
2023-05-25T01:39:13.027Z,14.21
2023-05-25T01:41:40.771Z,14.23
2023-05-25T01:44:08.549Z,14.26
2023-05-25T01:46:39.732Z,14.30
2023-05-25T01:49:39.145Z,14.30
2023-05-25T01:52:15.874Z,14.32
2023-05-25T01:54:47.384Z,14.33
2023-05-25T01:57:16.155Z,14.32
2023-05-25T01:59:44.404Z,14.28
2023-05-25T02:02:16.653Z,14.23
2023-05-25T02:04:44.478Z,14.19
2023-05-25T02:07:12.186Z,14.20
2023-05-25T02:09:40.021Z,14.23
2023-05-25T02:12:08.346Z,14.26
2023-05-25T02:14:35.957Z,14.26
2023-05-25T02:17:04.045Z,14.28
2023-05-25T02:19:31.814Z,14.30
2023-05-25T02:21:59.512Z,14.32
2023-05-25T02:24:27.466Z,14.35
2023-05-25T02:26:55.215Z,14.38
2023-05-25T02:29:23.039Z,14.42
2023-05-25T02:31:50.776Z,14.43
2023-05-25T02:34:18.509Z,14.44
2023-05-25T02:36:46.740Z,14.45
2023-05-25T02:39:14.561Z,14.44
2023-05-25T02:41:43.622Z,14.39
2023-05-25T02:44:11.162Z,14.36
2023-05-25T02:46:38.889Z,14.37
2023-05-25T02:49:07.275Z,14.39
2023-05-25T02:51:36.120Z,14.40
2023-05-25T02:54:03.836Z,14.43
2023-05-25T02:56:32.140Z,14.44
2023-05-25T02:59:00.129Z,14.45
2023-05-25T03:01:32.086Z,14.45
2023-05-25T03:04:01.464Z,14.45
2023-05-25T03:06:32.135Z,14.46
2023-05-25T03:09:05.221Z,14.46
2023-05-25T03:11:33.024Z,14.47
2023-05-25T03:14:01.356Z,14.48
2023-05-25T03:16:29.787Z,14.53
2023-05-25T03:18:59.178Z,14.61
2023-05-25T03:21:27.831Z,14.68
2023-05-25T03:23:55.542Z,14.78
2023-05-25T03:26:23.211Z,14.87
2023-05-25T03:28:52.804Z,14.96
2023-05-25T03:31:20.788Z,15.04
2023-05-25T03:33:48.932Z,15.09
2023-05-25T03:36:17.992Z,15.10
2023-05-25T03:38:46.177Z,15.13
2023-05-25T03:41:13.792Z,15.21
2023-05-25T03:43:41.389Z,15.32
2023-05-25T03:46:11.845Z,15.43
2023-05-25T03:48:39.600Z,15.50
2023-05-25T03:51:07.206Z,15.54
2023-05-25T03:53:34.809Z,15.60
2023-05-25T03:56:02.354Z,15.66
2023-05-25T03:58:30.010Z,15.73
2023-05-25T04:00:57.771Z,15.80
2023-05-25T04:03:25.427Z,15.89
2023-05-25T04:05:53.317Z,15.98
2023-05-25T04:08:22.778Z,16.07
2023-05-25T04:10:50.476Z,16.17
2023-05-25T04:13:18.137Z,16.26
2023-05-25T04:15:46.286Z,16.35
2023-05-25T04:18:19.369Z,16.45
2023-05-25T04:20:48.395Z,16.55
2023-05-25T04:23:17.672Z,16.64
2023-05-25T04:25:46.030Z,16.73
2023-05-25T04:28:15.102Z,16.84
2023-05-25T04:30:57.461Z,16.95
2023-05-25T04:33:47.779Z,17.09
2023-05-25T04:36:26.210Z,17.24
2023-05-25T04:38:55.617Z,17.36
2023-05-25T04:41:26.049Z,17.45
2023-05-25T04:44:09.120Z,17.55
2023-05-25T04:46:44.799Z,17.66
2023-05-25T04:49:19.106Z,17.76
2023-05-25T04:51:46.662Z,17.87
2023-05-25T04:54:14.968Z,17.98
2023-05-25T04:56:42.588Z,18.12
2023-05-25T04:59:11.195Z,18.30
2023-05-25T05:01:42.296Z,18.51
2023-05-25T05:04:13.055Z,18.73
2023-05-25T05:06:40.882Z,18.86
2023-05-25T05:09:11.881Z,18.97
2023-05-25T05:11:39.515Z,19.12
2023-05-25T05:14:07.798Z,19.23
2023-05-25T05:16:37.803Z,19.36
2023-05-25T05:19:05.488Z,19.45
2023-05-25T05:21:33.550Z,19.52
2023-05-25T05:24:02.291Z,19.60
2023-05-25T05:26:30.652Z,19.68
2023-05-25T05:28:59.338Z,19.86
2023-05-25T05:31:29.570Z,20.05
2023-05-25T05:33:57.775Z,20.23
2023-05-25T05:36:25.972Z,20.36
2023-05-25T05:39:02.037Z,20.43
2023-05-25T05:50:13.887Z,20.95
2023-05-25T05:54:04.048Z,21.08
2023-05-25T05:57:41.991Z,21.01
2023-05-25T06:01:20.526Z,20.97
2023-05-25T06:08:29.185Z,21.12
2023-05-25T06:12:05.126Z,21.27
2023-05-25T06:18:25.836Z,21.28
2023-05-25T06:21:48.553Z,21.32
2023-05-25T06:25:06.440Z,21.29
2023-05-25T06:28:35.457Z,21.41
2023-05-25T06:31:51.673Z,21.66
2023-05-25T06:34:31.774Z,21.72
2023-05-25T06:38:02.378Z,21.81
2023-05-25T06:41:38.579Z,21.94
2023-05-25T06:44:24.916Z,22.12
2023-05-25T06:47:07.424Z,22.22
2023-05-25T06:49:35.489Z,22.25
2023-05-25T06:52:08.948Z,22.30
2023-05-25T06:54:39.377Z,22.40
2023-05-25T06:57:07.153Z,22.54
2023-05-25T06:59:35.020Z,22.73
2023-05-25T07:02:02.618Z,22.91
2023-05-25T07:04:30.274Z,23.07
2023-05-25T07:07:04.381Z,23.18
2023-05-25T07:09:38.407Z,23.15
2023-05-25T07:20:05.016Z,22.82
2023-05-25T07:23:05.611Z,22.84
2023-05-25T07:25:45.153Z,22.99
2023-05-25T07:28:35.202Z,23.09
2023-05-25T07:31:11.327Z,23.12
2023-05-25T07:34:25.824Z,23.19
2023-05-25T07:36:56.198Z,23.27
2023-05-25T07:39:24.641Z,23.27
2023-05-25T07:42:13.961Z,23.21
2023-05-25T07:45:18.993Z,23.18
2023-05-25T07:47:59.396Z,23.12
2023-05-25T07:51:04.104Z,23.10
2023-05-25T07:53:49.839Z,23.08
2023-05-25T07:56:25.013Z,23.06
2023-05-25T07:59:11.014Z,23.12
2023-05-25T08:02:59.652Z,23.25
2023-05-25T08:06:09.678Z,23.50
2023-05-25T08:09:50.207Z,23.81
2023-05-25T08:16:51.719Z,24.43
2023-05-25T08:19:34.558Z,24.64
2023-05-25T08:22:45.629Z,24.69
2023-05-25T08:25:20.650Z,24.74
2023-05-25T08:27:52.088Z,24.82
2023-05-25T08:30:23.501Z,24.82
2023-05-25T08:32:52.303Z,24.86
2023-05-25T08:35:20.817Z,24.90
2023-05-25T08:37:51.695Z,24.84
2023-05-25T08:40:23.455Z,24.76
2023-05-25T08:42:52.038Z,24.78
2023-05-25T08:46:00.649Z,24.81
2023-05-25T08:48:53.746Z,25.02
2023-05-25T08:51:58.322Z,25.39
2023-05-25T08:54:34.909Z,25.64
2023-05-25T08:57:40.328Z,25.89
2023-05-25T09:01:32.455Z,26.01
2023-05-25T09:13:13.163Z,24.50
2023-05-25T09:16:12.085Z,23.74
2023-05-25T09:18:41.983Z,23.33
2023-05-25T09:21:42.594Z,23.00
2023-05-25T09:24:34.959Z,22.69
2023-05-25T09:27:24.673Z,22.45
2023-05-25T09:30:33.094Z,22.30
2023-05-25T09:36:51.129Z,22.05
2023-05-25T09:39:55.269Z,21.96
2023-05-25T09:42:35.805Z,21.76
2023-05-25T09:45:29.401Z,21.59
2023-05-25T09:48:45.045Z,21.48
2023-05-25T09:51:33.326Z,21.40
2023-05-25T09:54:25.089Z,21.31
2023-05-25T09:56:52.646Z,21.22
2023-05-25T09:59:20.320Z,21.16
2023-05-25T10:01:51.367Z,21.10
2023-05-25T10:04:19.270Z,21.07
2023-05-25T10:06:47.301Z,21.01
2023-05-25T10:09:15.580Z,20.94
2023-05-25T10:11:43.173Z,20.87
2023-05-25T10:14:10.832Z,20.82
2023-05-25T10:16:39.194Z,20.80
2023-05-25T10:19:18.591Z,20.79
2023-05-25T10:21:51.830Z,20.77
2023-05-25T10:24:35.233Z,20.73
2023-05-25T10:27:14.826Z,20.70
2023-05-25T10:29:52.744Z,20.72
2023-05-25T10:32:20.371Z,20.73
2023-05-25T10:34:48.134Z,20.74
2023-05-25T10:37:15.846Z,20.74
2023-05-25T10:39:45.758Z,20.73
2023-05-25T10:42:13.827Z,20.71
2023-05-25T10:44:44.919Z,20.72
2023-05-25T10:47:14.594Z,20.74
2023-05-25T10:49:54.495Z,20.74
2023-05-25T10:52:22.334Z,20.77
2023-05-25T10:54:50.039Z,20.80
2023-05-25T10:57:22.048Z,20.81
2023-05-25T11:00:00.766Z,20.84
2023-05-25T11:02:29.197Z,20.89
2023-05-25T11:05:27.839Z,20.91
2023-05-25T11:08:23.637Z,20.92
2023-05-25T11:10:53.170Z,20.96
2023-05-25T11:13:21.992Z,20.98
2023-05-25T11:16:21.534Z,20.96
2023-05-25T11:18:58.077Z,20.95
2023-05-25T11:21:29.118Z,20.88
2023-05-25T11:24:04.413Z,20.80
2023-05-25T11:26:35.362Z,20.77
2023-05-25T11:29:12.813Z,20.80
2023-05-25T11:31:43.692Z,20.88
2023-05-25T11:34:12.095Z,20.95
2023-05-25T11:36:39.808Z,21.01
2023-05-25T11:39:17.146Z,21.09
2023-05-25T11:42:02.073Z,21.18
2023-05-25T11:44:31.274Z,21.29
2023-05-25T11:47:01.932Z,21.40
2023-05-25T11:49:29.656Z,21.54
2023-05-25T11:51:57.535Z,21.66
2023-05-25T11:54:28.768Z,21.72
2023-05-25T11:57:00.198Z,21.79
2023-05-25T11:59:30.651Z,21.88
2023-05-25T12:02:01.182Z,21.95
2023-05-25T12:04:29.716Z,22.00
2023-05-25T12:07:07.210Z,22.05
2023-05-25T12:09:35.203Z,22.09
2023-05-25T12:12:06.763Z,22.12
2023-05-25T12:14:36.261Z,22.15
2023-05-25T12:17:04.161Z,22.20
2023-05-25T12:19:32.073Z,22.25
2023-05-25T12:21:59.600Z,22.31
2023-05-25T12:24:27.125Z,22.37
2023-05-25T12:26:59.296Z,22.44
2023-05-25T12:29:26.917Z,22.51
2023-05-25T12:32:02.697Z,22.58
2023-05-25T12:34:30.257Z,22.67
2023-05-25T12:36:57.887Z,22.73
2023-05-25T12:39:31.600Z,22.76
2023-05-25T12:41:59.792Z,22.81
2023-05-25T12:44:27.669Z,22.89
2023-05-25T12:46:55.890Z,22.99
2023-05-25T12:49:33.569Z,23.09
2023-05-25T12:52:02.419Z,23.16
2023-05-25T12:54:45.057Z,23.21
2023-05-25T12:57:14.177Z,23.22
2023-05-25T12:59:43.229Z,23.26
2023-05-25T13:02:13.054Z,23.32
2023-05-25T13:04:41.480Z,23.35
2023-05-25T13:07:09.320Z,23.39
2023-05-25T13:09:37.245Z,23.40
2023-05-25T13:12:05.197Z,23.42
2023-05-25T13:14:32.859Z,23.44
2023-05-25T13:17:00.666Z,23.45
2023-05-25T13:19:28.164Z,23.47
2023-05-25T13:21:56.856Z,23.49
2023-05-25T13:24:24.751Z,23.51
